Check out our new PWSWeather beta!
PWSweather.com
Personal Weather Stations
Station Observations
KNHFREMO3
Fremont, Fremont, NH 03044

FremontFremont, NH 03044

Lat: 42.964965, Lon: -71.118193

Elevation: 171

Station Type: Davis Vantage Pro2

High Low Average
Temperature 23.1°F-4.9°C 7.5°F-13.6°C 14.0°F-10.0°C
Dew Point 10.1°F-12.2°C -12.3°F-24.6°C -5.6°F-20.9°C
Winds 6.0 mph 9.7 kmh 1.0 mph 1.6 kmh 4.0 mph NW6.4 kmh NW
Wind Gusts 30.0 mph48.3 kmh 4.0 mph6.4 kmh 14.0 mph22.5 kmh
Humidity 58% 25% 42%
Pressure 30.65 in1037.9 mb 30.09 in1019.0 mb -
Precipitation 0.00 in0.0 mm - -
Hour Temp Dew Point Humidity Winds Wind Gusts Pressure Precip Precip Rate Daily Precip Total
12:00 AM 23.1°F-4.9°C 10.1°F-12.2°C 57% 4.0 mph NW6.4 kmh NW 16.0 mph25.7 kmh 30.09 in1019.0 mb 0.00 in0.0 mm 0.00 in0.0 mm 0.00 in0.0 mm
12:15 AM 22.6°F-5.2°C 9.2°F-12.7°C 56% 4.0 mph NW6.4 kmh NW 18.0 mph29.0 kmh 30.11 in1019.6 mb 0.00 in0.0 mm 0.00 in0.0 mm 0.00 in0.0 mm
12:30 AM 22.0°F-5.6°C 8.7°F-12.9°C 56% 4.0 mph WNW6.4 kmh WNW 15.0 mph24.1 kmh 30.11 in1019.6 mb 0.00 in0.0 mm 0.00 in0.0 mm 0.00 in0.0 mm
12:45 AM 21.5°F-5.8°C 8.2°F-13.2°C 56% 4.0 mph NW6.4 kmh NW 16.0 mph25.7 kmh 30.13 in1020.3 mb 0.00 in0.0 mm 0.00 in0.0 mm 0.00 in0.0 mm
01:00 AM 21.0°F-6.1°C 6.9°F-13.9°C 54% 5.0 mph NW8.0 kmh NW 18.0 mph29.0 kmh 30.14 in1020.7 mb 0.00 in0.0 mm 0.00 in0.0 mm 0.00 in0.0 mm
01:15 AM 20.6°F-6.3°C 7.0°F-13.9°C 55% 5.0 mph NW8.0 kmh NW 19.0 mph30.6 kmh 30.15 in1021.0 mb 0.00 in0.0 mm 0.00 in0.0 mm 0.00 in0.0 mm
01:30 AM 20.3°F-6.5°C 7.1°F-13.8°C 56% 5.0 mph NW8.0 kmh NW 16.0 mph25.7 kmh 30.16 in1021.3 mb 0.00 in0.0 mm 0.00 in0.0 mm 0.00 in0.0 mm
01:45 AM 19.9°F-6.7°C 7.1°F-13.8°C 57% 6.0 mph NW9.7 kmh NW 29.0 mph46.7 kmh 30.17 in1021.7 mb 0.00 in0.0 mm 0.00 in0.0 mm 0.00 in0.0 mm
02:00 AM 19.5°F-6.9°C 6.7°F-14.1°C 57% 4.0 mph NW6.4 kmh NW 16.0 mph25.7 kmh 30.19 in1022.4 mb 0.00 in0.0 mm 0.00 in0.0 mm 0.00 in0.0 mm
02:15 AM 18.8°F-7.3°C 5.3°F-14.8°C 55% 4.0 mph NW6.4 kmh NW 21.0 mph33.8 kmh 30.21 in1023.0 mb 0.00 in0.0 mm 0.00 in0.0 mm 0.00 in0.0 mm
02:30 AM 18.2°F-7.7°C 4.7°F-15.2°C 55% 4.0 mph NW6.4 kmh NW 15.0 mph24.1 kmh 30.21 in1023.0 mb 0.00 in0.0 mm 0.00 in0.0 mm 0.00 in0.0 mm
02:45 AM 17.8°F-7.9°C 5.1°F-14.9°C 57% 5.0 mph NW8.0 kmh NW 17.0 mph27.4 kmh 30.22 in1023.4 mb 0.00 in0.0 mm 0.00 in0.0 mm 0.00 in0.0 mm
03:00 AM 17.3°F-8.2°C 4.3°F-15.4°C 56% 5.0 mph WNW8.0 kmh WNW 21.0 mph33.8 kmh 30.23 in1023.7 mb 0.00 in0.0 mm 0.00 in0.0 mm 0.00 in0.0 mm
03:15 AM 16.8°F-8.4°C 3.8°F-15.7°C 56% 5.0 mph NW8.0 kmh NW 17.0 mph27.4 kmh 30.25 in1024.4 mb 0.00 in0.0 mm 0.00 in0.0 mm 0.00 in0.0 mm
03:30 AM 16.4°F-8.7°C 3.4°F-15.9°C 56% 5.0 mph NW8.0 kmh NW 17.0 mph27.4 kmh 30.25 in1024.4 mb 0.00 in0.0 mm 0.00 in0.0 mm 0.00 in0.0 mm
03:45 AM 15.9°F-8.9°C 3.0°F-16.1°C 56% 4.0 mph WNW6.4 kmh WNW 19.0 mph30.6 kmh 30.26 in1024.7 mb 0.00 in0.0 mm 0.00 in0.0 mm 0.00 in0.0 mm
04:00 AM 15.6°F-9.1°C 2.7°F-16.3°C 56% 5.0 mph NW8.0 kmh NW 22.0 mph35.4 kmh 30.27 in1025.1 mb 0.00 in0.0 mm 0.00 in0.0 mm 0.00 in0.0 mm
04:15 AM 15.4°F-9.2°C 3.2°F-16.0°C 58% 3.0 mph NW4.8 kmh NW 13.0 mph20.9 kmh 30.28 in1025.4 mb 0.00 in0.0 mm 0.00 in0.0 mm 0.00 in0.0 mm
04:30 AM 15.0°F-9.4°C 2.9°F-16.2°C 58% 4.0 mph NW6.4 kmh NW 14.0 mph22.5 kmh 30.29 in1025.7 mb 0.00 in0.0 mm 0.00 in0.0 mm 0.00 in0.0 mm
04:45 AM 14.7°F-9.6°C 2.2°F-16.6°C 57% 4.0 mph NW6.4 kmh NW 20.0 mph32.2 kmh 30.30 in1026.1 mb 0.00 in0.0 mm 0.00 in0.0 mm 0.00 in0.0 mm
05:00 AM 14.5°F-9.7°C 1.2°F-17.1°C 55% 5.0 mph NW8.0 kmh NW 17.0 mph27.4 kmh 30.32 in1026.8 mb 0.00 in0.0 mm 0.00 in0.0 mm 0.00 in0.0 mm
05:15 AM 14.2°F-9.9°C 0.6°F-17.4°C 54% 6.0 mph NW9.7 kmh NW 19.0 mph30.6 kmh 30.32 in1026.8 mb 0.00 in0.0 mm 0.00 in0.0 mm 0.00 in0.0 mm
05:30 AM 13.9°F-10.1°C 0.3°F-17.6°C 54% 4.0 mph NNW6.4 kmh NNW 14.0 mph22.5 kmh 30.34 in1027.4 mb 0.00 in0.0 mm 0.00 in0.0 mm 0.00 in0.0 mm
05:45 AM 13.6°F-10.2°C -0.4°F-18.0°C 53% 5.0 mph NW8.0 kmh NW 19.0 mph30.6 kmh 30.35 in1027.8 mb 0.00 in0.0 mm 0.00 in0.0 mm 0.00 in0.0 mm
06:00 AM 13.1°F-10.5°C -1.7°F-18.7°C 51% 5.0 mph NW8.0 kmh NW 14.0 mph22.5 kmh 30.37 in1028.4 mb 0.00 in0.0 mm 0.00 in0.0 mm 0.00 in0.0 mm
06:15 AM 12.5°F-10.8°C -2.6°F-19.2°C 50% 4.0 mph NW6.4 kmh NW 20.0 mph32.2 kmh 30.38 in1028.8 mb 0.00 in0.0 mm 0.00 in0.0 mm 0.00 in0.0 mm
06:30 AM 12.0°F-11.1°C -3.1°F-19.5°C 50% 5.0 mph NW8.0 kmh NW 21.0 mph33.8 kmh 30.38 in1028.8 mb 0.00 in0.0 mm 0.00 in0.0 mm 0.00 in0.0 mm
06:45 AM 11.6°F-11.3°C -3.1°F-19.5°C 51% 6.0 mph NW9.7 kmh NW 17.0 mph27.4 kmh 30.39 in1029.1 mb 0.00 in0.0 mm 0.00 in0.0 mm 0.00 in0.0 mm
07:00 AM 11.0°F-11.7°C -4.0°F-20.0°C 50% 4.0 mph WNW6.4 kmh WNW 13.0 mph20.9 kmh 30.41 in1029.8 mb 0.00 in0.0 mm 0.00 in0.0 mm 0.00 in0.0 mm
07:15 AM 10.5°F-11.9°C -4.5°F-20.3°C 50% 6.0 mph NW9.7 kmh NW 20.0 mph32.2 kmh 30.43 in1030.5 mb 0.00 in0.0 mm 0.00 in0.0 mm 0.00 in0.0 mm
07:30 AM 10.1°F-12.2°C -5.3°F-20.7°C 49% 3.0 mph WNW4.8 kmh WNW 16.0 mph25.7 kmh 30.44 in1030.8 mb 0.00 in0.0 mm 0.00 in0.0 mm 0.00 in0.0 mm
07:45 AM 9.8°F-12.3°C -5.6°F-20.9°C 49% 5.0 mph NW8.0 kmh NW 30.0 mph48.3 kmh 30.45 in1031.2 mb 0.00 in0.0 mm 0.00 in0.0 mm 0.00 in0.0 mm
08:00 AM 9.8°F-12.3°C -5.6°F-20.9°C 49% 4.0 mph NW6.4 kmh NW 15.0 mph24.1 kmh 30.47 in1031.8 mb 0.00 in0.0 mm 0.00 in0.0 mm 0.00 in0.0 mm
08:15 AM 9.8°F-12.3°C -6.0°F-21.1°C 48% 6.0 mph NW9.7 kmh NW 16.0 mph25.7 kmh 30.47 in1031.8 mb 0.00 in0.0 mm 0.00 in0.0 mm 0.00 in0.0 mm
08:30 AM 9.6°F-12.4°C -6.2°F-21.2°C 48% 5.0 mph NW8.0 kmh NW 21.0 mph33.8 kmh 30.48 in1032.2 mb 0.00 in0.0 mm 0.00 in0.0 mm 0.00 in0.0 mm
08:45 AM 9.8°F-12.3°C -6.0°F-21.1°C 48% 2.0 mph WSW3.2 kmh WSW 16.0 mph25.7 kmh 30.50 in1032.8 mb 0.00 in0.0 mm 0.00 in0.0 mm 0.00 in0.0 mm
09:00 AM 10.0°F-12.2°C -7.6°F-22.0°C 44% 4.0 mph NW6.4 kmh NW 16.0 mph25.7 kmh 30.51 in1033.2 mb 0.00 in0.0 mm 0.00 in0.0 mm 0.00 in0.0 mm
09:15 AM 10.5°F-11.9°C -9.1°F-22.8°C 40% 5.0 mph NW8.0 kmh NW 15.0 mph24.1 kmh 30.53 in1033.9 mb 0.00 in0.0 mm 0.00 in0.0 mm 0.00 in0.0 mm
09:30 AM 11.5°F-11.4°C -8.2°F-22.3°C 40% 2.0 mph NNW3.2 kmh NNW 10.0 mph16.1 kmh 30.53 in1033.9 mb 0.00 in0.0 mm 0.00 in0.0 mm 0.00 in0.0 mm
09:45 AM 11.9°F-11.2°C -8.9°F-22.7°C 38% 3.0 mph WNW4.8 kmh WNW 12.0 mph19.3 kmh 30.54 in1034.2 mb 0.00 in0.0 mm 0.00 in0.0 mm 0.00 in0.0 mm
10:00 AM 12.1°F-11.1°C -8.7°F-22.6°C 38% 4.0 mph WNW6.4 kmh WNW 12.0 mph19.3 kmh 30.54 in1034.2 mb 0.00 in0.0 mm 0.00 in0.0 mm 0.00 in0.0 mm
10:15 AM 13.0°F-10.6°C -9.0°F-22.8°C 36% 4.0 mph WNW6.4 kmh WNW 14.0 mph22.5 kmh 30.55 in1034.5 mb 0.00 in0.0 mm 0.00 in0.0 mm 0.00 in0.0 mm
10:30 AM 14.0°F-10.0°C -8.7°F-22.6°C 35% 3.0 mph WNW4.8 kmh WNW 10.0 mph16.1 kmh 30.55 in1034.5 mb 0.00 in0.0 mm 0.00 in0.0 mm 0.00 in0.0 mm
10:45 AM 14.7°F-9.6°C -9.9°F-23.3°C 32% 5.0 mph NW8.0 kmh NW 15.0 mph24.1 kmh 30.54 in1034.2 mb 0.00 in0.0 mm 0.00 in0.0 mm 0.00 in0.0 mm
11:00 AM 15.3°F-9.3°C -9.3°F-22.9°C 32% 5.0 mph NW8.0 kmh NW 15.0 mph24.1 kmh 30.54 in1034.2 mb 0.00 in0.0 mm 0.00 in0.0 mm 0.00 in0.0 mm
11:15 AM 16.1°F-8.8°C -9.3°F-22.9°C 31% 4.0 mph NW6.4 kmh NW 17.0 mph27.4 kmh 30.54 in1034.2 mb 0.00 in0.0 mm 0.00 in0.0 mm 0.00 in0.0 mm
11:30 AM 17.0°F-8.3°C -10.6°F-23.7°C 28% 4.0 mph NW6.4 kmh NW 15.0 mph24.1 kmh 30.54 in1034.2 mb 0.00 in0.0 mm 0.00 in0.0 mm 0.00 in0.0 mm
11:45 AM 17.4°F-8.1°C -10.2°F-23.4°C 28% 3.0 mph NW4.8 kmh NW 15.0 mph24.1 kmh 30.52 in1033.5 mb 0.00 in0.0 mm 0.00 in0.0 mm 0.00 in0.0 mm
12:00 PM 17.4°F-8.1°C -10.9°F-23.8°C 27% 4.0 mph NW6.4 kmh NW 12.0 mph19.3 kmh 30.52 in1033.5 mb 0.00 in0.0 mm 0.00 in0.0 mm 0.00 in0.0 mm
12:15 PM 17.3°F-8.2°C -10.3°F-23.5°C 28% 4.0 mph NW6.4 kmh NW 19.0 mph30.6 kmh 30.52 in1033.5 mb 0.00 in0.0 mm 0.00 in0.0 mm 0.00 in0.0 mm
12:30 PM 17.3°F-8.2°C -9.6°F-23.1°C 29% 6.0 mph NW9.7 kmh NW 20.0 mph32.2 kmh 30.51 in1033.2 mb 0.00 in0.0 mm 0.00 in0.0 mm 0.00 in0.0 mm
12:45 PM 17.6°F-8.0°C -11.5°F-24.2°C 26% 5.0 mph NW8.0 kmh NW 17.0 mph27.4 kmh 30.52 in1033.5 mb 0.00 in0.0 mm 0.00 in0.0 mm 0.00 in0.0 mm
01:00 PM 17.1°F-8.3°C -11.2°F-24.0°C 27% 5.0 mph NW8.0 kmh NW 18.0 mph29.0 kmh 30.52 in1033.5 mb 0.00 in0.0 mm 0.00 in0.0 mm 0.00 in0.0 mm
01:15 PM 17.4°F-8.1°C -11.7°F-24.3°C 26% 4.0 mph NW6.4 kmh NW 20.0 mph32.2 kmh 30.52 in1033.5 mb 0.00 in0.0 mm 0.00 in0.0 mm 0.00 in0.0 mm
01:30 PM 17.5°F-8.1°C -10.1°F-23.4°C 28% 4.0 mph NW6.4 kmh NW 14.0 mph22.5 kmh 30.52 in1033.5 mb 0.00 in0.0 mm 0.00 in0.0 mm 0.00 in0.0 mm
01:45 PM 17.5°F-8.1°C -10.9°F-23.8°C 27% 5.0 mph NW8.0 kmh NW 14.0 mph22.5 kmh 30.52 in1033.5 mb 0.00 in0.0 mm 0.00 in0.0 mm 0.00 in0.0 mm
02:00 PM 17.5°F-8.1°C -10.9°F-23.8°C 27% 4.0 mph NW6.4 kmh NW 15.0 mph24.1 kmh 30.52 in1033.5 mb 0.00 in0.0 mm 0.00 in0.0 mm 0.00 in0.0 mm
02:15 PM 17.6°F-8.0°C -11.5°F-24.2°C 26% 3.0 mph WNW4.8 kmh WNW 13.0 mph20.9 kmh 30.53 in1033.9 mb 0.00 in0.0 mm 0.00 in0.0 mm 0.00 in0.0 mm
02:30 PM 17.9°F-7.8°C -11.3°F-24.1°C 26% 5.0 mph NW8.0 kmh NW 15.0 mph24.1 kmh 30.53 in1033.9 mb 0.00 in0.0 mm 0.00 in0.0 mm 0.00 in0.0 mm
02:45 PM 18.0°F-7.8°C -12.0°F-24.4°C 25% 4.0 mph NW6.4 kmh NW 15.0 mph24.1 kmh 30.54 in1034.2 mb 0.00 in0.0 mm 0.00 in0.0 mm 0.00 in0.0 mm
03:00 PM 17.4°F-8.1°C -10.9°F-23.8°C 27% 3.0 mph NW4.8 kmh NW 14.0 mph22.5 kmh 30.54 in1034.2 mb 0.00 in0.0 mm 0.00 in0.0 mm 0.00 in0.0 mm
03:15 PM 17.4°F-8.1°C -11.7°F-24.3°C 26% 3.0 mph NW4.8 kmh NW 13.0 mph20.9 kmh 30.54 in1034.2 mb 0.00 in0.0 mm 0.00 in0.0 mm 0.00 in0.0 mm
03:30 PM 17.3°F-8.2°C -11.0°F-23.9°C 27% 4.0 mph NW6.4 kmh NW 14.0 mph22.5 kmh 30.55 in1034.5 mb 0.00 in0.0 mm 0.00 in0.0 mm 0.00 in0.0 mm
03:45 PM 16.1°F-8.8°C -11.3°F-24.1°C 28% 3.0 mph W4.8 kmh W 12.0 mph19.3 kmh 30.56 in1034.9 mb 0.00 in0.0 mm 0.00 in0.0 mm 0.00 in0.0 mm
04:00 PM 15.5°F-9.2°C -11.2°F-24.0°C 29% 3.0 mph NW4.8 kmh NW 10.0 mph16.1 kmh 30.57 in1035.2 mb 0.00 in0.0 mm 0.00 in0.0 mm 0.00 in0.0 mm
04:15 PM 15.0°F-9.4°C -12.3°F-24.6°C 28% 4.0 mph NW6.4 kmh NW 19.0 mph30.6 kmh 30.57 in1035.2 mb 0.00 in0.0 mm 0.00 in0.0 mm 0.00 in0.0 mm
04:30 PM 14.6°F-9.7°C -10.0°F-23.3°C 32% 3.0 mph NW4.8 kmh NW 13.0 mph20.9 kmh 30.59 in1035.9 mb 0.00 in0.0 mm 0.00 in0.0 mm 0.00 in0.0 mm
04:45 PM 14.2°F-9.9°C -10.3°F-23.5°C 32% 3.0 mph NW4.8 kmh NW 13.0 mph20.9 kmh 30.59 in1035.9 mb 0.00 in0.0 mm 0.00 in0.0 mm 0.00 in0.0 mm
05:00 PM 13.8°F-10.1°C -12.0°F-24.4°C 30% 4.0 mph WNW6.4 kmh WNW 13.0 mph20.9 kmh 30.60 in1036.2 mb 0.00 in0.0 mm 0.00 in0.0 mm 0.00 in0.0 mm
05:15 PM 13.4°F-10.3°C -11.0°F-23.9°C 32% 2.0 mph WNW3.2 kmh WNW 12.0 mph19.3 kmh 30.61 in1036.6 mb 0.00 in0.0 mm 0.00 in0.0 mm 0.00 in0.0 mm
05:30 PM 13.1°F-10.5°C -10.1°F-23.4°C 34% 3.0 mph WNW4.8 kmh WNW 10.0 mph16.1 kmh 30.61 in1036.6 mb 0.00 in0.0 mm 0.00 in0.0 mm 0.00 in0.0 mm
05:45 PM 12.7°F-10.7°C -10.4°F-23.6°C 34% 2.0 mph WNW3.2 kmh WNW 7.0 mph11.3 kmh 30.61 in1036.6 mb 0.00 in0.0 mm 0.00 in0.0 mm 0.00 in0.0 mm
06:00 PM 12.5°F-10.8°C -10.0°F-23.3°C 35% 2.0 mph NW3.2 kmh NW 9.0 mph14.5 kmh 30.62 in1036.9 mb 0.00 in0.0 mm 0.00 in0.0 mm 0.00 in0.0 mm
06:15 PM 12.5°F-10.8°C -10.6°F-23.7°C 34% 4.0 mph NW6.4 kmh NW 13.0 mph20.9 kmh 30.63 in1037.3 mb 0.00 in0.0 mm 0.00 in0.0 mm 0.00 in0.0 mm
06:30 PM 12.3°F-10.9°C -9.6°F-23.1°C 36% 1.0 mph NW1.6 kmh NW 5.0 mph8.0 kmh 30.63 in1037.3 mb 0.00 in0.0 mm 0.00 in0.0 mm 0.00 in0.0 mm
06:45 PM 12.0°F-11.1°C -9.3°F-22.9°C 37% 2.0 mph WNW3.2 kmh WNW 13.0 mph20.9 kmh 30.63 in1037.3 mb 0.00 in0.0 mm 0.00 in0.0 mm 0.00 in0.0 mm
07:00 PM 11.7°F-11.3°C -9.6°F-23.1°C 37% 2.0 mph NW3.2 kmh NW 8.0 mph12.9 kmh 30.62 in1036.9 mb 0.00 in0.0 mm 0.00 in0.0 mm 0.00 in0.0 mm
07:15 PM 11.6°F-11.3°C -9.7°F-23.2°C 37% 2.0 mph NNW3.2 kmh NNW 9.0 mph14.5 kmh 30.62 in1036.9 mb 0.00 in0.0 mm 0.00 in0.0 mm 0.00 in0.0 mm
07:30 PM 11.1°F-11.6°C -8.6°F-22.6°C 40% 2.0 mph WNW3.2 kmh WNW 10.0 mph16.1 kmh 30.61 in1036.6 mb 0.00 in0.0 mm 0.00 in0.0 mm 0.00 in0.0 mm
07:45 PM 10.7°F-11.8°C -8.9°F-22.7°C 40% 1.0 mph WNW1.6 kmh WNW 9.0 mph14.5 kmh 30.61 in1036.6 mb 0.00 in0.0 mm 0.00 in0.0 mm 0.00 in0.0 mm
08:00 PM 10.4°F-12.0°C -9.2°F-22.9°C 40% 1.0 mph SW1.6 kmh SW 4.0 mph6.4 kmh 30.62 in1036.9 mb 0.00 in0.0 mm 0.00 in0.0 mm 0.00 in0.0 mm
08:15 PM 10.0°F-12.2°C -8.6°F-22.6°C 42% 1.0 mph NW1.6 kmh NW 8.0 mph12.9 kmh 30.62 in1036.9 mb 0.00 in0.0 mm 0.00 in0.0 mm 0.00 in0.0 mm
08:30 PM 9.7°F-12.4°C -8.8°F-22.7°C 42% 1.0 mph NW1.6 kmh NW 8.0 mph12.9 kmh 30.61 in1036.6 mb 0.00 in0.0 mm 0.00 in0.0 mm 0.00 in0.0 mm
08:45 PM 9.2°F-12.7°C -8.3°F-22.4°C 44% 1.0 mph NW1.6 kmh NW 4.0 mph6.4 kmh 30.61 in1036.6 mb 0.00 in0.0 mm 0.00 in0.0 mm 0.00 in0.0 mm
09:00 PM 8.9°F-12.8°C -8.6°F-22.6°C 44% 1.0 mph WNW1.6 kmh WNW 5.0 mph8.0 kmh 30.62 in1036.9 mb 0.00 in0.0 mm 0.00 in0.0 mm 0.00 in0.0 mm
09:15 PM 8.8°F-12.9°C -9.2°F-22.9°C 43% 2.0 mph WNW3.2 kmh WNW 8.0 mph12.9 kmh 30.62 in1036.9 mb 0.00 in0.0 mm 0.00 in0.0 mm 0.00 in0.0 mm
09:30 PM 8.6°F-13.0°C -9.4°F-23.0°C 43% 1.0 mph W1.6 kmh W 4.0 mph6.4 kmh 30.62 in1036.9 mb 0.00 in0.0 mm 0.00 in0.0 mm 0.00 in0.0 mm
09:45 PM 8.5°F-13.1°C -9.0°F-22.8°C 44% 1.0 mph WNW1.6 kmh WNW 5.0 mph8.0 kmh 30.63 in1037.3 mb 0.00 in0.0 mm 0.00 in0.0 mm 0.00 in0.0 mm
10:00 PM 8.5°F-13.1°C -9.5°F-23.1°C 43% 1.0 mph W1.6 kmh W 8.0 mph12.9 kmh 30.62 in1036.9 mb 0.00 in0.0 mm 0.00 in0.0 mm 0.00 in0.0 mm
10:15 PM 8.4°F-13.1°C -9.5°F-23.1°C 43% 2.0 mph W3.2 kmh W 9.0 mph14.5 kmh 30.63 in1037.3 mb 0.00 in0.0 mm 0.00 in0.0 mm 0.00 in0.0 mm
10:30 PM 8.2°F-13.2°C -9.7°F-23.2°C 43% 2.0 mph W3.2 kmh W 8.0 mph12.9 kmh 30.64 in1037.6 mb 0.00 in0.0 mm 0.00 in0.0 mm 0.00 in0.0 mm
10:45 PM 8.1°F-13.3°C -9.4°F-23.0°C 44% 1.0 mph NW1.6 kmh NW 8.0 mph12.9 kmh 30.65 in1037.9 mb 0.00 in0.0 mm 0.00 in0.0 mm 0.00 in0.0 mm
11:00 PM 7.9°F-13.4°C -9.5°F-23.1°C 44% 2.0 mph NW3.2 kmh NW 10.0 mph16.1 kmh 30.65 in1037.9 mb 0.00 in0.0 mm 0.00 in0.0 mm 0.00 in0.0 mm
11:15 PM 7.8°F-13.4°C -9.2°F-22.9°C 45% 2.0 mph NW3.2 kmh NW 9.0 mph14.5 kmh 30.64 in1037.6 mb 0.00 in0.0 mm 0.00 in0.0 mm 0.00 in0.0 mm
11:30 PM 7.7°F-13.5°C -9.7°F-23.2°C 44% 2.0 mph NW3.2 kmh NW 9.0 mph14.5 kmh 30.64 in1037.6 mb 0.00 in0.0 mm 0.00 in0.0 mm 0.00 in0.0 mm
11:45 PM 7.5°F-13.6°C -9.0°F-22.8°C 46% 2.0 mph WNW3.2 kmh WNW 7.0 mph11.3 kmh 30.64 in1037.6 mb 0.00 in0.0 mm 0.00 in0.0 mm 0.00 in0.0 mm